Time;durP1;ratioP1;P1;durP2;ratioP2;P2;SDS_P1;SDS_P2;PMS_P1;PMS_P2;Temp;Humidity;BMP_temperature;BMP_pressure;BME280_temperature;BME280_humidity;BME280_pressure;Samples;Min_cycle;Max_cycle;Signal;HPM_P1;HPM_P2
2024/01/14 00:00:40;;;;;;;15.25;5.40;;;7.30;99.90;;;;;;5033463;28;20033;-73
2024/01/14 00:03:05;;;;;;;20.50;6.03;;;7.30;99.90;;;;;;5033701;28;20017;-73
2024/01/14 00:05:31;;;;;;;21.15;6.40;;;7.20;99.90;;;;;;5033967;28;20477;-73
2024/01/14 00:07:56;;;;;;;14.30;5.72;;;7.20;99.90;;;;;;5033281;28;20471;-73
2024/01/14 00:10:22;;;;;;;17.15;6.03;;;7.20;99.90;;;;;;5033115;28;20570;-73
2024/01/14 00:12:48;;;;;;;12.95;5.88;;;7.20;99.90;;;;;;5031807;28;20037;-73
2024/01/14 00:15:14;;;;;;;19.08;6.00;;;7.10;99.90;;;;;;5033523;28;20052;-73
2024/01/14 00:17:41;;;;;;;16.48;6.53;;;7.10;99.90;;;;;;5033449;28;20104;-73
2024/01/14 00:20:08;;;;;;;20.70;6.82;;;7.10;99.90;;;;;;5033336;28;20025;-73
2024/01/14 00:22:34;;;;;;;17.48;6.93;;;7.10;99.90;;;;;;5033087;28;20037;-73
2024/01/14 00:24:59;;;;;;;18.20;6.70;;;7.00;99.90;;;;;;5031936;28;20516;-73
2024/01/14 00:27:25;;;;;;;17.25;7.60;;;7.00;99.90;;;;;;5032822;28;20473;-74
2024/01/14 00:29:51;;;;;;;16.52;7.43;;;7.00;99.90;;;;;;5025877;28;20532;-73
2024/01/14 00:32:16;;;;;;;19.15;7.82;;;7.00;99.90;;;;;;5031835;28;20032;-73
2024/01/14 00:34:42;;;;;;;15.75;7.20;;;7.00;99.90;;;;;;5032826;28;20053;-73
2024/01/14 00:37:08;;;;;;;17.48;7.00;;;7.00;99.90;;;;;;5033400;28;20462;-73
2024/01/14 00:39:37;;;;;;;19.17;7.18;;;7.00;99.90;;;;;;5033299;28;20064;-73
2024/01/14 00:42:05;;;;;;;16.08;7.15;;;7.00;99.90;;;;;;5032924;28;20021;-73
2024/01/14 00:44:30;;;;;;;19.38;6.55;;;7.00;99.90;;;;;;5028619;28;20029;-73
2024/01/14 00:46:56;;;;;;;19.05;6.22;;;7.00;99.90;;;;;;5033141;28;20021;-73
2024/01/14 00:49:21;;;;;;;14.98;6.00;;;7.10;99.90;;;;;;5028246;28;20428;-73
2024/01/14 00:51:47;;;;;;;15.93;5.57;;;7.10;99.90;;;;;;5051711;28;20477;-73
2024/01/14 00:54:12;;;;;;;19.48;6.00;;;7.10;99.90;;;;;;5046685;28;20084;-73
2024/01/14 00:56:38;;;;;;;17.33;6.05;;;7.10;99.90;;;;;;5020050;28;20772;-73
2024/01/14 00:59:04;;;;;;;15.43;6.35;;;7.10;99.90;;;;;;5013037;28;20026;-73
2024/01/14 01:01:30;;;;;;;18.13;6.70;;;7.10;99.90;;;;;;5012506;28;20030;-74
2024/01/14 01:03:55;;;;;;;19.67;7.15;;;7.00;99.90;;;;;;5019939;28;20025;-74
2024/01/14 01:06:21;;;;;;;18.13;7.10;;;6.90;99.90;;;;;;5036185;28;20112;-73
2024/01/14 01:08:47;;;;;;;17.73;6.72;;;6.80;99.90;;;;;;5052657;28;20057;-74
2024/01/14 01:11:17;;;;;;;18.73;7.60;;;6.80;99.90;;;;;;5052238;28;20151;-74
2024/01/14 01:13:43;;;;;;;19.70;7.25;;;6.70;99.90;;;;;;5025639;28;20026;-73
2024/01/14 01:16:09;;;;;;;20.20;7.50;;;6.70;99.90;;;;;;5012872;28;20122;-74
2024/01/14 01:18:34;;;;;;;15.25;7.28;;;6.60;99.90;;;;;;5012457;28;20069;-74
2024/01/14 01:21:00;;;;;;;22.77;7.07;;;6.60;99.90;;;;;;5025724;28;20462;-73
2024/01/14 01:23:26;;;;;;;18.63;7.40;;;6.60;99.90;;;;;;5032424;28;20086;-73
2024/01/14 01:25:52;;;;;;;20.50;7.20;;;6.60;99.90;;;;;;5032437;28;20449;-73
2024/01/14 01:28:17;;;;;;;23.58;7.47;;;6.60;99.90;;;;;;5032488;28;20025;-73
2024/01/14 01:30:43;;;;;;;18.85;6.57;;;6.60;99.90;;;;;;5019407;28;20046;-72
2024/01/14 01:33:08;;;;;;;18.38;6.50;;;6.60;99.90;;;;;;5012568;28;20061;-73
2024/01/14 01:35:34;;;;;;;16.20;6.50;;;6.70;99.90;;;;;;5014853;28;20040;-74
2024/01/14 01:37:59;;;;;;;17.98;6.53;;;6.60;99.90;;;;;;5031577;28;20033;-73
2024/01/14 01:40:25;;;;;;;20.90;7.28;;;6.60;99.90;;;;;;5031606;28;20415;-73
2024/01/14 01:42:51;;;;;;;19.83;7.05;;;6.60;99.90;;;;;;5037894;28;20488;-73
2024/01/14 01:45:17;;;;;;;19.45;7.30;;;6.60;99.90;;;;;;5052200;28;20029;-73
2024/01/14 01:47:43;;;;;;;15.68;6.80;;;6.70;99.90;;;;;;5037261;28;20055;-73
2024/01/14 01:50:09;;;;;;;13.40;6.40;;;6.70;99.90;;;;;;5031434;28;20037;-73
2024/01/14 01:52:36;;;;;;;19.08;6.65;;;6.70;99.90;;;;;;5023936;28;20409;-74
2024/01/14 01:55:04;;;;;;;16.25;7.15;;;6.70;99.90;;;;;;5031902;28;20026;-73
2024/01/14 01:57:30;;;;;;;18.00;7.60;;;6.80;99.90;;;;;;5032137;28;20053;-73
2024/01/14 01:59:57;;;;;;;16.80;7.53;;;6.70;99.90;;;;;;5032093;28;20450;-72
2024/01/14 02:02:23;;;;;;;17.35;6.93;;;6.80;99.90;;;;;;5031993;28;20025;-74
2024/01/14 02:04:48;;;;;;;18.77;7.53;;;6.70;99.90;;;;;;5017879;28;20088;-73
2024/01/14 02:07:16;;;;;;;21.83;7.43;;;6.70;99.90;;;;;;5022226;28;20026;-73
2024/01/14 02:09:42;;;;;;;15.25;7.15;;;6.70;99.90;;;;;;5030059;28;20712;-74
2024/01/14 02:12:08;;;;;;;16.42;7.65;;;6.70;99.90;;;;;;5032016;28;20037;-73
2024/01/14 02:14:34;;;;;;;17.45;6.93;;;6.70;99.90;;;;;;5034747;28;20401;-72
2024/01/14 02:16:59;;;;;;;14.63;6.50;;;6.70;99.90;;;;;;5035161;28;20112;-74
2024/01/14 02:19:25;;;;;;;17.13;6.05;;;6.70;99.90;;;;;;5035359;28;20038;-72
2024/01/14 02:22:11;;;;;;;18.48;6.22;;;6.80;99.90;;;;;;5035523;28;20037;-74
2024/01/14 02:24:38;;;;;;;14.60;5.97;;;6.80;99.90;;;;;;5031173;28;20042;-74
2024/01/14 02:27:04;;;;;;;16.92;5.45;;;6.80;99.90;;;;;;5035375;28;20026;-73
2024/01/14 02:29:30;;;;;;;18.92;5.20;;;6.90;99.90;;;;;;5035262;28;20528;-74
2024/01/14 02:31:56;;;;;;;17.77;5.22;;;6.90;99.90;;;;;;5035266;28;20026;-73
2024/01/14 02:34:23;;;;;;;22.90;4.88;;;6.90;99.90;;;;;;5035480;28;20104;-74
2024/01/14 02:36:48;;;;;;;19.33;5.63;;;6.80;99.90;;;;;;5034928;28;20029;-74
2024/01/14 02:39:16;;;;;;;15.43;5.03;;;6.80;99.90;;;;;;5030560;28;20040;-73
2024/01/14 02:41:42;;;;;;;22.35;5.20;;;6.80;99.90;;;;;;5034579;28;20032;-72
2024/01/14 02:44:08;;;;;;;12.52;4.95;;;6.80;99.90;;;;;;5035087;28;20026;-74
2024/01/14 02:46:35;;;;;;;17.77;4.85;;;6.90;99.90;;;;;;5035066;28;20025;-74
2024/01/14 02:49:00;;;;;;;17.38;5.03;;;6.90;99.90;;;;;;5034808;28;20033;-72
2024/01/14 02:51:26;;;;;;;15.90;4.82;;;6.90;99.90;;;;;;5034844;28;20116;-74
2024/01/14 02:53:52;;;;;;;12.00;5.00;;;6.90;99.90;;;;;;5034542;28;20030;-74
2024/01/14 02:56:18;;;;;;;13.00;5.22;;;6.80;99.90;;;;;;5028226;28;20079;-74
2024/01/14 02:58:44;;;;;;;19.67;6.20;;;6.80;99.90;;;;;;5034905;28;20473;-74
2024/01/14 03:01:11;;;;;;;15.00;5.13;;;6.80;99.90;;;;;;5034824;28;20072;-73
2024/01/14 03:03:37;;;;;;;17.63;5.22;;;6.70;99.90;;;;;;5034520;28;20112;-73
2024/01/14 03:06:03;;;;;;;13.13;5.68;;;6.60;99.90;;;;;;5034790;28;20029;-73
2024/01/14 03:08:29;;;;;;;17.35;6.18;;;6.60;99.90;;;;;;5034533;28;20052;-73
2024/01/14 03:10:54;;;;;;;16.85;6.32;;;6.50;99.90;;;;;;5029668;28;20041;-73
2024/01/14 03:13:20;;;;;;;17.10;5.80;;;6.40;99.90;;;;;;5034504;28;20041;-74
2024/01/14 03:15:45;;;;;;;14.65;5.50;;;6.40;99.90;;;;;;5034902;28;20091;-74
2024/01/14 03:18:12;;;;;;;16.55;6.10;;;6.40;99.90;;;;;;5032826;28;20029;-74
2024/01/14 03:20:38;;;;;;;17.58;5.95;;;6.30;99.90;;;;;;5034558;28;20033;-74
2024/01/14 03:23:04;;;;;;;19.75;5.22;;;6.20;99.90;;;;;;5034284;28;20026;-73
2024/01/14 03:25:30;;;;;;;20.17;6.85;;;6.20;99.90;;;;;;5029013;28;20030;-74
2024/01/14 03:27:55;;;;;;;16.90;5.45;;;6.20;99.90;;;;;;5034635;28;20075;-72
2024/01/14 03:30:21;;;;;;;16.65;5.43;;;6.10;99.90;;;;;;5034235;28;20037;-73
2024/01/14 03:32:46;;;;;;;21.48;5.40;;;6.10;99.90;;;;;;5033659;28;20025;-73
2024/01/14 03:35:12;;;;;;;16.13;5.50;;;6.10;99.90;;;;;;5034403;28;20037;-72
2024/01/14 03:37:38;;;;;;;14.82;5.38;;;6.00;99.90;;;;;;5033668;28;20060;-74
2024/01/14 03:40:05;;;;;;;16.85;5.72;;;6.00;99.90;;;;;;5027651;28;20061;-73
2024/01/14 03:42:30;;;;;;;17.88;5.65;;;6.00;99.90;;;;;;5033114;28;20080;-74
2024/01/14 03:44:56;;;;;;;20.98;5.68;;;5.90;99.90;;;;;;5034327;28;20068;-73
2024/01/14 03:47:22;;;;;;;17.77;5.85;;;5.90;99.90;;;;;;5032380;28;20034;-73
2024/01/14 03:49:47;;;;;;;18.58;5.43;;;5.90;99.90;;;;;;5033857;28;20048;-74
2024/01/14 03:52:13;;;;;;;15.60;5.32;;;5.90;99.90;;;;;;5033980;28;20484;-72
2024/01/14 03:54:38;;;;;;;22.08;5.93;;;5.90;99.90;;;;;;5032720;28;20378;-73
2024/01/14 03:57:04;;;;;;;17.63;6.00;;;5.80;99.90;;;;;;5030117;28;20124;-72
2024/01/14 03:59:30;;;;;;;23.15;6.38;;;5.90;99.90;;;;;;5033897;28;20071;-74
2024/01/14 04:01:56;;;;;;;23.35;6.78;;;5.80;99.90;;;;;;5033517;28;20091;-74
2024/01/14 04:04:21;;;;;;;11.63;5.75;;;5.80;99.90;;;;;;5032296;28;20470;-74
2024/01/14 04:06:47;;;;;;;22.15;5.60;;;5.90;99.90;;;;;;5033679;28;20025;-73
2024/01/14 04:09:12;;;;;;;22.45;5.60;;;5.90;99.90;;;;;;5033508;28;20054;-72
2024/01/14 04:11:38;;;;;;;14.27;5.45;;;5.90;99.90;;;;;;5032347;28;20033;-74
2024/01/14 04:14:04;;;;;;;20.15;5.55;;;5.90;99.90;;;;;;5033829;28;20147;-73
2024/01/14 04:16:39;;;;;;;19.98;5.90;;;6.00;99.90;;;;;;5033062;28;20465;-74
2024/01/14 04:19:06;;;;;;;15.45;6.03;;;6.00;99.90;;;;;;5033490;28;20041;-72
2024/01/14 04:21:32;;;;;;;15.45;5.93;;;6.00;99.90;;;;;;5033415;28;20615;-73
2024/01/14 04:24:02;;;;;;;17.67;6.60;;;6.10;99.90;;;;;;5033276;28;20072;-74
2024/01/14 04:26:28;;;;;;;17.33;6.43;;;6.10;99.90;;;;;;5027878;28;20368;-73
2024/01/14 04:28:54;;;;;;;17.08;6.07;;;6.10;99.90;;;;;;5031112;28;20061;-73
2024/01/14 04:31:19;;;;;;;15.48;6.07;;;6.20;99.90;;;;;;5033004;28;20084;-72
2024/01/14 04:33:45;;;;;;;13.90;5.40;;;6.20;99.90;;;;;;5033258;28;20027;-74
2024/01/14 04:36:11;;;;;;;21.42;6.63;;;6.30;99.90;;;;;;5032601;28;20101;-73
2024/01/14 04:38:37;;;;;;;16.58;5.80;;;6.30;99.90;;;;;;5033078;28;20171;-73
2024/01/14 04:41:03;;;;;;;17.75;6.32;;;6.40;99.90;;;;;;5032125;28;20474;-74
2024/01/14 04:43:29;;;;;;;13.73;5.95;;;6.40;99.90;;;;;;5028309;28;20030;-72
2024/01/14 04:45:54;;;;;;;12.45;5.63;;;6.50;99.90;;;;;;5032767;28;20030;-72
2024/01/14 04:48:20;;;;;;;15.90;5.70;;;6.60;99.90;;;;;;5033162;28;20029;-72
2024/01/14 04:50:45;;;;;;;12.55;4.95;;;6.60;99.90;;;;;;5032412;28;20628;-73
2024/01/14 04:53:14;;;;;;;16.60;5.43;;;6.60;99.90;;;;;;5032785;28;20025;-72
2024/01/14 04:55:39;;;;;;;15.85;6.03;;;6.50;99.90;;;;;;5033035;28;20469;-72
2024/01/14 04:58:05;;;;;;;14.43;5.43;;;6.50;99.90;;;;;;5024872;28;20061;-73
2024/01/14 05:00:31;;;;;;;15.10;5.28;;;6.40;99.90;;;;;;5032370;28;20014;-72
2024/01/14 05:02:56;;;;;;;15.27;5.28;;;6.40;99.90;;;;;;5032554;28;20057;-72
2024/01/14 05:05:22;;;;;;;16.10;5.45;;;6.30;99.90;;;;;;5032372;28;20439;-73
2024/01/14 05:07:47;;;;;;;18.90;5.22;;;6.30;99.90;;;;;;5032449;28;20076;-72
2024/01/14 05:10:13;;;;;;;20.55;6.05;;;6.30;99.90;;;;;;5032677;28;20053;-73
2024/01/14 05:12:39;;;;;;;16.38;5.10;;;6.30;99.90;;;;;;5028634;28;20038;-72
2024/01/14 05:15:05;;;;;;;17.95;5.68;;;6.20;99.90;;;;;;5031612;28;20041;-73
2024/01/14 05:17:32;;;;;;;12.77;4.88;;;6.20;99.90;;;;;;5032527;28;20039;-72
2024/01/14 05:19:57;;;;;;;22.10;5.35;;;6.20;99.90;;;;;;5032379;28;20038;-73
2024/01/14 05:22:23;;;;;;;19.30;5.18;;;6.20;99.90;;;;;;5032634;28;20037;-72
2024/01/14 05:24:51;;;;;;;13.95;5.10;;;6.20;99.90;;;;;;5032441;28;20033;-72
2024/01/14 05:27:17;;;;;;;17.08;5.15;;;6.30;99.90;;;;;;5032255;28;20095;-72
2024/01/14 05:29:43;;;;;;;13.05;4.75;;;6.20;99.90;;;;;;5031468;28;20485;-73
2024/01/14 05:32:13;;;;;;;14.85;4.55;;;6.20;99.90;;;;;;5032686;28;20045;-72
2024/01/14 05:34:38;;;;;;;15.40;5.35;;;6.20;99.90;;;;;;5031898;28;20108;-72
2024/01/14 05:37:05;;;;;;;17.15;5.47;;;6.20;99.90;;;;;;5032108;28;20148;-72
2024/01/14 05:39:32;;;;;;;19.02;6.45;;;6.20;99.90;;;;;;5032483;28;20080;-73
2024/01/14 05:41:58;;;;;;;15.77;5.35;;;6.20;99.90;;;;;;5031826;28;20430;-72
2024/01/14 05:44:23;;;;;;;15.85;6.38;;;6.20;99.90;;;;;;5025426;28;20114;-73
2024/01/14 05:46:49;;;;;;;17.15;5.22;;;6.20;99.90;;;;;;5033569;28;20033;-73
2024/01/14 05:49:15;;;;;;;17.00;5.18;;;6.30;99.90;;;;;;5036216;28;20112;-72
2024/01/14 05:51:40;;;;;;;13.68;5.15;;;6.40;99.90;;;;;;5035819;28;20155;-72
2024/01/14 05:54:06;;;;;;;17.45;5.78;;;6.50;99.90;;;;;;5035833;28;20040;-72
2024/01/14 05:56:31;;;;;;;12.18;4.57;;;6.60;99.90;;;;;;5035873;28;20037;-71
2024/01/14 05:58:57;;;;;;;11.68;4.72;;;6.60;99.90;;;;;;5033266;28;20034;-73
2024/01/14 06:01:22;;;;;;;13.43;4.72;;;6.70;99.90;;;;;;5034053;28;20041;-72
2024/01/14 06:03:48;;;;;;;11.50;5.15;;;6.70;99.90;;;;;;5036042;28;20033;-73
2024/01/14 06:06:14;;;;;;;14.48;5.22;;;6.70;99.90;;;;;;5036089;28;20021;-73
2024/01/14 06:08:43;;;;;;;10.07;5.05;;;6.70;99.90;;;;;;5035644;28;20409;-72
2024/01/14 06:11:09;;;;;;;13.63;5.10;;;6.70;99.90;;;;;;5034913;28;20439;-73
2024/01/14 06:13:34;;;;;;;12.57;5.10;;;6.70;99.90;;;;;;5035848;28;20041;-73
2024/01/14 06:16:01;;;;;;;15.95;5.22;;;6.60;99.90;;;;;;5028375;28;20029;-72
2024/01/14 06:18:28;;;;;;;12.80;5.30;;;6.60;99.90;;;;;;5035798;28;20056;-73
2024/01/14 06:20:55;;;;;;;15.43;5.28;;;6.60;99.90;;;;;;5035346;28;20060;-74
2024/01/14 06:23:21;;;;;;;13.02;4.85;;;6.60;99.90;;;;;;5035344;28;20362;-73
2024/01/14 06:25:47;;;;;;;13.27;5.40;;;6.50;99.90;;;;;;5035608;28;20034;-73
2024/01/14 06:28:13;;;;;;;16.08;5.60;;;6.50;99.90;;;;;;5035680;28;20045;-73
2024/01/14 06:30:38;;;;;;;13.20;5.22;;;6.50;99.90;;;;;;5030332;28;20045;-71
2024/01/14 06:33:04;;;;;;;13.23;5.05;;;6.50;99.90;;;;;;5034353;28;20473;-74
2024/01/14 06:35:29;;;;;;;11.80;4.40;;;6.50;99.90;;;;;;5035542;28;20037;-73
2024/01/14 06:37:55;;;;;;;15.90;4.25;;;6.50;99.90;;;;;;5035087;28;20084;-73
2024/01/14 06:40:21;;;;;;;11.57;3.78;;;6.60;99.90;;;;;;5035443;28;20044;-73
2024/01/14 06:42:46;;;;;;;9.05;4.07;;;6.60;99.90;;;;;;5035118;28;20025;-72
2024/01/14 06:45:13;;;;;;;14.85;4.10;;;6.60;99.90;;;;;;5035152;28;20026;-72
2024/01/14 06:47:39;;;;;;;9.30;3.97;;;6.60;99.90;;;;;;5028199;28;20132;-72
2024/01/14 06:50:05;;;;;;;8.32;3.40;;;6.60;99.90;;;;;;5034706;28;20124;-73
2024/01/14 06:52:31;;;;;;;12.95;3.70;;;6.60;99.90;;;;;;5032946;28;20025;-73
2024/01/14 06:54:56;;;;;;;9.25;3.63;;;6.60;99.90;;;;;;5035127;28;20083;-72
2024/01/14 06:57:22;;;;;;;11.15;3.10;;;6.60;99.90;;;;;;5035093;28;20049;-72
2024/01/14 06:59:48;;;;;;;8.70;3.50;;;6.60;99.90;;;;;;5034428;28;20171;-74
2024/01/14 07:02:14;;;;;;;8.52;4.00;;;6.50;99.90;;;;;;5029687;28;20038;-73
2024/01/14 07:04:40;;;;;;;13.60;3.88;;;6.50;99.90;;;;;;5034824;28;20026;-72
2024/01/14 07:07:08;;;;;;;15.82;4.38;;;6.50;99.90;;;;;;5034830;28;20029;-73
2024/01/14 07:09:34;;;;;;;10.68;4.00;;;6.50;99.90;;;;;;5034118;28;20109;-72
2024/01/14 07:12:00;;;;;;;11.18;3.90;;;6.50;99.90;;;;;;5034699;28;20025;-74
2024/01/14 07:14:26;;;;;;;12.60;4.32;;;6.60;99.90;;;;;;5034620;28;20385;-73
2024/01/14 07:16:52;;;;;;;8.18;4.10;;;6.60;99.90;;;;;;5034062;28;20026;-74
2024/01/14 07:19:17;;;;;;;17.45;4.75;;;6.70;99.90;;;;;;5034037;28;20034;-72
2024/01/14 07:21:43;;;;;;;11.70;5.03;;;6.60;99.90;;;;;;5033356;28;20026;-74
2024/01/14 07:24:09;;;;;;;13.13;4.97;;;6.70;99.90;;;;;;5032048;28;20053;-73
2024/01/14 07:26:35;;;;;;;6.88;4.18;;;6.70;99.90;;;;;;5033263;28;20491;-73
2024/01/14 07:29:01;;;;;;;11.32;4.70;;;6.80;99.90;;;;;;5034437;28;20453;-73
2024/01/14 07:31:27;;;;;;;11.93;4.95;;;6.80;99.90;;;;;;5033838;28;20033;-73
2024/01/14 07:33:53;;;;;;;10.38;4.63;;;6.80;99.90;;;;;;5031276;28;20034;-74
2024/01/14 07:36:19;;;;;;;12.05;4.85;;;6.80;99.90;;;;;;5033851;28;20029;-73
2024/01/14 07:38:45;;;;;;;12.82;5.18;;;6.80;99.90;;;;;;5033920;28;20052;-72
2024/01/14 07:41:13;;;;;;;12.45;5.60;;;6.70;99.90;;;;;;5033704;28;20087;-74
2024/01/14 07:43:39;;;;;;;11.57;5.68;;;6.70;99.90;;;;;;5033708;28;20115;-74
2024/01/14 07:46:06;;;;;;;16.45;6.20;;;6.60;99.90;;;;;;5033813;28;20049;-73
2024/01/14 07:48:32;;;;;;;11.98;6.20;;;6.60;99.90;;;;;;5026424;28;20473;-74
2024/01/14 07:50:57;;;;;;;10.13;5.38;;;6.60;99.90;;;;;;5032745;28;20515;-73
2024/01/14 07:53:23;;;;;;;13.05;5.80;;;6.60;99.90;;;;;;5036016;28;20072;-74
2024/01/14 07:55:49;;;;;;;11.63;5.35;;;6.50;99.90;;;;;;5048047;28;20049;-74
2024/01/14 07:58:15;;;;;;;12.82;4.85;;;6.50;99.90;;;;;;5053446;28;20072;-74
2024/01/14 08:00:42;;;;;;;16.10;5.22;;;6.50;99.90;;;;;;5043883;28;20068;-73
2024/01/14 08:03:07;;;;;;;17.67;4.50;;;6.40;99.90;;;;;;5038110;28;20028;-72
2024/01/14 08:05:35;;;;;;;12.68;3.65;;;6.40;99.90;;;;;;5050032;28;20033;-74
2024/01/14 08:08:01;;;;;;;8.43;3.05;;;6.40;99.90;;;;;;5036304;28;20112;-73
2024/01/14 08:10:27;;;;;;;9.52;3.40;;;6.40;99.90;;;;;;5052223;28;20048;-73
2024/01/14 08:12:53;;;;;;;6.20;3.10;;;6.50;99.90;;;;;;5041591;28;20450;-73
2024/01/14 08:15:18;;;;;;;6.13;2.78;;;6.50;99.90;;;;;;5047806;28;20127;-73
2024/01/14 08:17:44;;;;;;;10.07;2.63;;;6.60;99.90;;;;;;5036796;28;20040;-73
2024/01/14 08:20:11;;;;;;;7.82;3.55;;;6.50;99.90;;;;;;5033353;28;20112;-74
2024/01/14 08:22:37;;;;;;;6.45;2.60;;;6.60;99.90;;;;;;5043650;28;20041;-73
2024/01/14 08:25:04;;;;;;;8.07;2.67;;;6.60;99.90;;;;;;5038555;28;20477;-74
2024/01/14 08:27:30;;;;;;;8.88;3.28;;;6.60;99.90;;;;;;5041296;28;20021;-74
2024/01/14 08:29:55;;;;;;;8.68;3.65;;;6.60;99.90;;;;;;5048638;28;20354;-73
2024/01/14 08:32:21;;;;;;;8.70;3.30;;;6.60;99.90;;;;;;5027851;28;20040;-74
2024/01/14 08:34:47;;;;;;;6.25;3.13;;;6.60;99.90;;;;;;5043083;28;20037;-74
2024/01/14 08:37:12;;;;;;;9.02;3.25;;;6.60;99.90;;;;;;5037828;28;20022;-73
2024/01/14 08:39:38;;;;;;;9.82;3.33;;;6.60;99.90;;;;;;5048847;28;20494;-73
2024/01/14 08:42:03;;;;;;;10.50;3.72;;;6.60;99.90;;;;;;5036786;28;20025;-74
2024/01/14 08:44:29;;;;;;;9.05;3.83;;;6.60;99.90;;;;;;5044333;28;20033;-73
2024/01/14 08:46:54;;;;;;;8.50;3.47;;;6.60;99.90;;;;;;5043857;28;20028;-73
2024/01/14 08:49:20;;;;;;;11.75;3.55;;;6.60;99.90;;;;;;5046279;28;20033;-73
2024/01/14 08:51:46;;;;;;;11.52;3.60;;;6.60;99.90;;;;;;5035917;28;20041;-72
2024/01/14 08:54:11;;;;;;;9.60;3.13;;;6.70;99.90;;;;;;5046698;28;20029;-74
2024/01/14 08:56:37;;;;;;;9.15;3.38;;;6.70;99.90;;;;;;5030736;28;20033;-74
2024/01/14 08:59:03;;;;;;;14.50;3.50;;;6.80;99.90;;;;;;5044479;28;20033;-74
2024/01/14 09:01:29;;;;;;;10.75;3.00;;;6.80;99.90;;;;;;5035648;28;20018;-72
2024/01/14 09:03:55;;;;;;;7.70;2.90;;;6.80;99.90;;;;;;5047974;28;20042;-73
2024/01/14 09:06:21;;;;;;;6.90;2.90;;;6.80;99.90;;;;;;5037434;28;20033;-73
2024/01/14 09:08:46;;;;;;;5.43;2.50;;;6.90;99.90;;;;;;5033429;28;20060;-73
2024/01/14 09:11:13;;;;;;;7.15;3.15;;;6.90;99.90;;;;;;5032061;28;20103;-73
2024/01/14 09:13:39;;;;;;;8.38;3.17;;;6.80;99.90;;;;;;5048817;28;20108;-72
2024/01/14 09:16:06;;;;;;;10.70;3.30;;;6.80;99.90;;;;;;5036604;28;20124;-73
2024/01/14 09:18:31;;;;;;;10.45;3.60;;;6.80;99.90;;;;;;5043830;28;20022;-73
2024/01/14 09:20:57;;;;;;;8.50;3.25;;;6.80;99.90;;;;;;5044036;28;20039;-74
2024/01/14 09:23:22;;;;;;;12.10;3.50;;;6.80;99.90;;;;;;5036636;28;20087;-74
2024/01/14 09:25:48;;;;;;;10.00;3.25;;;6.90;99.90;;;;;;5036286;28;20048;-73
2024/01/14 09:28:14;;;;;;;9.55;2.80;;;6.90;99.90;;;;;;5038242;28;20021;-72
2024/01/14 09:30:39;;;;;;;6.32;2.40;;;6.90;99.90;;;;;;5041287;28;20485;-73
2024/01/14 09:33:05;;;;;;;5.40;1.90;;;6.90;99.90;;;;;;5045263;28;20029;-74
2024/01/14 09:35:31;;;;;;;6.07;2.20;;;6.90;99.90;;;;;;5035659;28;20044;-73
2024/01/14 09:37:57;;;;;;;6.78;2.97;;;6.90;99.90;;;;;;5047881;28;20036;-73
2024/01/14 09:40:23;;;;;;;8.18;2.60;;;7.00;99.90;;;;;;5038841;28;20115;-73
2024/01/14 09:42:50;;;;;;;5.85;2.22;;;7.00;99.90;;;;;;5041222;28;20033;-74
2024/01/14 09:45:16;;;;;;;9.88;2.65;;;7.10;99.90;;;;;;5046727;28;20025;-74
2024/01/14 09:47:44;;;;;;;8.13;2.78;;;7.20;99.90;;;;;;5050128;28;20480;-74
2024/01/14 09:50:10;;;;;;;8.52;2.67;;;7.30;99.90;;;;;;5036669;28;20369;-74
2024/01/14 09:52:39;;;;;;;10.10;2.90;;;7.30;99.90;;;;;;5045526;28;20033;-74
2024/01/14 09:55:05;;;;;;;12.20;2.92;;;7.40;99.90;;;;;;5038850;28;20025;-74
2024/01/14 09:57:33;;;;;;;8.55;2.60;;;7.50;99.90;;;;;;5048651;28;20036;-73
2024/01/14 10:00:06;;;;;;;11.18;2.95;;;7.60;99.90;;;;;;5035705;28;20113;-72
2024/01/14 10:02:33;;;;;;;9.65;2.28;;;7.70;99.90;;;;;;5043138;28;20466;-73
2024/01/14 10:04:59;;;;;;;10.98;2.60;;;7.90;99.90;;;;;;5044250;28;20532;-73
2024/01/14 10:07:26;;;;;;;16.75;2.92;;;8.00;99.90;;;;;;5034781;28;20037;-73
2024/01/14 10:09:52;;;;;;;8.80;2.55;;;8.10;99.90;;;;;;5047888;28;20057;-74
2024/01/14 10:12:18;;;;;;;13.48;2.42;;;8.20;99.90;;;;;;5037794;28;20099;-72
2024/01/14 10:14:44;;;;;;;9.40;2.47;;;8.40;99.90;;;;;;5038769;28;20057;-74
2024/01/14 10:17:13;;;;;;;9.35;2.20;;;8.40;99.90;;;;;;5045686;28;20064;-74
2024/01/14 10:19:39;;;;;;;9.23;3.22;;;8.50;99.90;;;;;;5034902;28;20025;-72
2024/01/14 10:22:05;;;;;;;6.65;2.20;;;8.50;99.90;;;;;;5046832;28;20193;-73
2024/01/14 10:24:32;;;;;;;8.23;2.28;;;8.60;99.90;;;;;;5039895;28;20025;-73
2024/01/14 10:26:58;;;;;;;8.57;2.30;;;8.70;99.90;;;;;;5038838;28;20057;-73
2024/01/14 10:29:24;;;;;;;8.65;2.08;;;9.10;99.90;;;;;;5046785;28;20052;-74
2024/01/14 10:31:50;;;;;;;8.43;1.80;;;9.80;99.90;;;;;;5035208;28;20432;-73
2024/01/14 10:34:17;;;;;;;6.38;1.83;;;10.60;99.90;;;;;;5045822;28;20036;-73
2024/01/14 10:36:43;;;;;;;10.02;2.15;;;11.20;99.90;;;;;;5043984;28;20025;-74
2024/01/14 10:39:11;;;;;;;10.10;2.20;;;11.20;99.90;;;;;;5041558;28;20094;-73
2024/01/14 10:41:36;;;;;;;8.05;2.75;;;11.10;99.90;;;;;;5051656;28;20055;-74
2024/01/14 10:44:02;;;;;;;12.82;2.50;;;10.80;99.90;;;;;;5039411;28;20460;-73
2024/01/14 10:46:32;;;;;;;10.85;3.13;;;10.50;99.90;;;;;;5054798;28;20025;-74
2024/01/14 10:49:08;;;;;;;14.80;3.40;;;10.20;99.90;;;;;;5042911;28;20105;-74
2024/01/14 10:51:40;;;;;;;13.60;3.45;;;9.90;99.90;;;;;;5051473;28;20037;-74
2024/01/14 10:54:19;;;;;;;10.32;3.17;;;9.70;99.90;;;;;;5039687;28;20423;-73
2024/01/14 10:56:50;;;;;;;10.88;3.33;;;9.50;99.90;;;;;;5044139;28;20034;-73
2024/01/14 10:59:21;;;;;;;11.63;3.83;;;9.30;99.90;;;;;;5034991;28;20056;-71
2024/01/14 11:01:53;;;;;;;9.55;3.00;;;9.20;99.90;;;;;;5040503;28;20109;-73
2024/01/14 11:04:19;;;;;;;;;;;9.10;99.90;;;;;;5048208;28;20026;-73
2024/01/14 11:06:46;;;;;;;10.75;3.10;;;9.00;99.90;;;;;;5045200;28;19958;-74
2024/01/14 11:09:12;;;;;;;8.43;3.53;;;8.90;99.90;;;;;;5040155;28;20194;-74
2024/01/14 11:11:47;;;;;;;8.70;2.95;;;8.80;99.90;;;;;;5050855;28;20516;-73
2024/01/14 11:14:33;;;;;;;11.82;3.13;;;8.80;99.90;;;;;;5037503;28;20025;-73
2024/01/14 11:17:12;;;;;;;14.68;3.50;;;8.70;99.90;;;;;;5046670;28;20108;-72
2024/01/14 11:19:41;;;;;;;13.32;3.80;;;8.60;99.90;;;;;;5037816;28;20484;-72
2024/01/14 11:22:19;;;;;;;12.02;4.07;;;8.60;99.90;;;;;;5049265;28;20071;-73
2024/01/14 11:24:44;;;;;;;12.70;2.80;;;8.50;99.90;;;;;;5044506;28;20036;-72
2024/01/14 11:27:10;;;;;;;10.70;2.78;;;8.50;99.90;;;;;;5040409;28;20379;-74
2024/01/14 11:29:39;;;;;;;12.40;2.63;;;8.50;99.90;;;;;;5050481;28;20460;-72
2024/01/14 11:32:12;;;;;;;8.90;2.67;;;8.40;99.90;;;;;;5031603;28;20029;-74
2024/01/14 11:34:47;;;;;;;10.68;3.33;;;8.30;99.90;;;;;;5032930;28;20366;-74
2024/01/14 11:37:36;;;;;;;13.98;3.47;;;8.30;99.90;;;;;;5039768;28;20032;-71
2024/01/14 11:40:08;;;;;;;10.10;4.25;;;8.20;99.90;;;;;;5017749;28;20037;-73
2024/01/14 11:42:33;;;;;;;;;;;8.20;99.90;;;;;;5037603;28;20106;-74
2024/01/14 11:45:03;;;;;;;15.68;4.95;;;8.30;99.90;;;;;;5041661;28;20345;-71
2024/01/14 11:47:45;;;;;;;14.63;4.45;;;8.30;99.90;;;;;;5050470;28;20033;-73
2024/01/14 11:50:14;;;;;;;14.02;4.47;;;8.30;99.90;;;;;;5025429;28;20036;-73
2024/01/14 11:52:45;;;;;;;15.60;4.55;;;8.40;99.90;;;;;;5043492;28;20068;-73
2024/01/14 11:55:17;;;;;;;14.82;4.30;;;8.50;99.90;;;;;;5047633;28;20021;-72
2024/01/14 11:57:47;;;;;;;14.18;5.20;;;8.50;99.90;;;;;;5037089;28;20072;-72
2024/01/14 12:00:15;;;;;;;9.70;4.18;;;8.60;99.90;;;;;;5047749;28;20037;-73
2024/01/14 12:02:41;;;;;;;12.88;4.30;;;8.50;99.90;;;;;;5037880;28;20021;-73
2024/01/14 12:05:20;;;;;;;14.25;4.55;;;8.60;99.90;;;;;;5038501;28;20068;-73
2024/01/14 12:07:46;;;;;;;14.27;4.13;;;8.60;99.90;;;;;;5042510;28;20049;-74
2024/01/14 12:10:16;;;;;;;15.30;4.30;;;8.60;99.90;;;;;;5047776;28;20068;-72
2024/01/14 12:12:42;;;;;;;12.30;4.15;;;8.60;99.90;;;;;;5041548;28;20032;-73
2024/01/14 12:15:09;;;;;;;10.98;3.45;;;8.50;99.90;;;;;;5049645;28;20029;-74
2024/01/14 12:17:34;;;;;;;14.13;3.55;;;8.50;99.90;;;;;;5036761;28;20018;-72
2024/01/14 12:20:01;;;;;;;11.85;2.15;;;8.60;99.90;;;;;;5048719;28;20036;-73
2024/01/14 12:22:27;;;;;;;8.05;1.88;;;8.60;99.90;;;;;;5044750;28;20037;-73
2024/01/14 12:24:54;;;;;;;6.97;2.10;;;8.60;99.90;;;;;;5044842;28;20029;-73
2024/01/14 12:27:20;;;;;;;4.85;1.73;;;8.60;99.90;;;;;;5037303;28;20079;-74
2024/01/14 12:29:45;;;;;;;10.52;2.45;;;8.60;99.90;;;;;;5049767;28;20036;-73
2024/01/14 12:32:11;;;;;;;7.88;2.50;;;8.60;99.90;;;;;;5039047;28;20033;-72
2024/01/14 12:34:43;;;;;;;12.50;2.17;;;8.50;99.90;;;;;;5041822;28;20428;-72
2024/01/14 12:37:10;;;;;;;11.20;2.95;;;8.50;99.90;;;;;;5038600;28;20084;-74
2024/01/14 12:39:36;;;;;;;12.68;2.72;;;8.40;99.90;;;;;;5040342;28;20034;-75
2024/01/14 12:42:03;;;;;;;11.02;3.20;;;8.30;99.90;;;;;;5039755;28;20029;-73
2024/01/14 12:44:36;;;;;;;15.18;3.13;;;8.20;99.90;;;;;;5041095;28;20021;-74
2024/01/14 12:47:05;;;;;;;12.68;3.03;;;8.10;99.90;;;;;;5052477;28;20021;-73